Gwynn Oak, Maryland
Current Conditions -  °F | °C
As of 12:54 AM on Friday 31 Oct 2014 (Local Time) from KBWI Reporting Station
Broken Clouds Broken Clouds  
Wind Chill: 47°   Ceiling: 5500
Heat Index: 47°   Visibility: 10mi
Dew Point: 41°   Wind: 0mph
Humidity: 80%   Direction: NA
Pressure: 30.02"   Gusts: NA
Location:  39.32°N, 76.73°W
Report Text: KBWI 310454Z 00000KT 10SM BKN055 08/05 A3002 RMK AO2 SLP167 T00830050 401560056
Loading
Personal Weather Stations






























Interactive Weather Map New forecast layout! Learn more

10-Day Weather Forecast

Advertisements
Track Severe Weather on mobile